Latest Weather Observations for Westmere

IDV60801

Issued at 8:32 am EST Monday 26 September 2016 (issued every 30 minutes, with the page automatically refreshed every 10 minutes)

About weather observations | Map of weather stations | Latest weather observations for VIC | Other Formats
Station Details ID: 089112 Name: WESTMERE Lat: -37.71 Lon: 142.94 Height: 226.0 m
Data from the previous 72 hours. | See also: Recent months at Westmere
Date/Time
EST
Temp
°C
App
Temp
°C
Dew
Point
°C
Rel
Hum
%
Delta-T
°C
Wind Press
QNH
hPa
Press
MSL
hPa
Rain since
9am
mm
Dir  Spd
km/h
Gust
km/h
Spd
kts
Gust
kts
26/08:30am 10.2 7.2 7.6 84 1.3 N 13 17 7 9 1012.2 1012.4 0.2
26/08:00am 9.0 6.3 7.3 89 0.8 N 11 15 6 8 1012.1 1012.3 0.2
26/07:30am 6.8 4.2 5.9 94 0.4 SW 9 13 5 7 1012.3 1012.5 0.2
26/07:00am 5.1 1.8 4.7 97 0.2 SW 11 13 6 7 1012.5 1012.6 0.2
26/06:30am 3.0 -0.3 2.6 97 0.2 SW 9 11 5 6 1012.5 1012.6 0.2
26/06:00am 3.2 0.3 2.8 97 0.2 SW 7 9 4 5 1012.5 1012.6 0.2
26/05:30am 2.9 0.1 2.3 96 0.2 SW 6 7 3 4 1012.3 1012.5 0.2
26/05:00am 3.8 1.1 2.9 94 0.4 SW 6 7 3 4 1012.2 1012.4 0.2
26/04:30am 4.7 2.6 3.7 93 0.4 SW 4 6 2 3 1012.1 1012.3 0.2
26/04:00am 5.8 3.3 4.9 94 0.4 SW 7 9 4 5 1012.1 1012.3 0.2
26/03:30am 5.7 2.9 5.3 97 0.2 SW 9 9 5 5 1012.3 1012.5 0.2
26/03:00am 4.7 2.1 4.3 97 0.2 SW 7 7 4 4 1012.6 1012.7 0.2
26/02:30am 4.6 2.0 4.0 96 0.3 SW 7 9 4 5 1012.8 1012.9 0.2
26/02:00am 5.0 2.4 4.4 96 0.3 SW 7 7 4 4 1013.1 1013.2 0.2
26/01:30am 5.7 4.2 4.8 94 0.4 SW 2 4 1 2 1013.3 1013.4 0.2
26/01:00am 6.6 4.8 5.6 93 0.5 SW 4 6 2 3 1013.6 1013.7 0.2
26/12:30am 7.3 5.3 6.4 94 0.4 SW 6 6 3 3 1013.8 1013.9 0.2
26/12:00am 7.2 5.5 6.0 92 0.5 SW 4 4 2 2 1013.7 1013.8 0.2
 
Date/Time
EST
Temp
°C
App
Temp
°C
Dew
Point
°C
Rel
Hum
%
Delta-T
°C
Wind Press
QNH
hPa
Press
MSL
hPa
Rain since
9am
mm
Dir  Spd
km/h
Gust
km/h
Spd
kts
Gust
kts
25/11:30pm 8.0 6.0 6.9 93 0.5 SW 7 9 4 5 1013.9 1014.0 0.2
25/11:00pm 8.2 6.1 6.5 89 0.8 SW 7 9 4 5 1013.8 1013.9 0.0
25/10:30pm 8.2 6.3 6.7 90 0.7 SW 6 7 3 4 1014.2 1014.4 0.0
25/10:00pm 8.1 7.3 6.6 90 0.7 CALM 0 0 0 0 1014.2 1014.4 0.0
25/09:30pm 8.1 7.2 5.9 86 1.0 CALM 0 0 0 0 1014.1 1014.3 0.0
25/09:00pm 8.4 7.6 6.4 87 0.9 CALM 0 0 0 0 1014.2 1014.4 0.0
25/08:30pm 8.6 7.4 6.6 87 0.9 SW 2 4 1 2 1014.1 1014.3 0.0
25/08:00pm 8.7 7.2 6.8 88 0.9 SW 4 6 2 3 1013.7 1013.8 0.0
25/07:30pm 8.9 7.1 7.2 89 0.8 SW 6 6 3 3 1013.5 1013.6 0.0
25/07:00pm 9.1 7.3 7.1 87 1.0 SW 6 7 3 4 1013.4 1013.5 0.0
25/06:30pm 9.7 7.2 6.4 80 1.6 SW 9 11 5 6 1013.0 1013.1 0.0
25/06:00pm 10.6 8.7 6.9 78 1.8 SW 6 7 3 4 1012.7 1012.8 0.0
25/05:30pm 10.9 9.3 6.5 74 2.1 SW 4 7 2 4 1012.3 1012.5 0.0
25/05:00pm 10.8 8.0 5.3 69 2.5 SW 9 13 5 7 1012.0 1012.2 0.0
25/04:30pm 11.0 7.6 5.7 70 2.5 SW 13 17 7 9 1011.8 1012.0 0.0
25/04:00pm 12.4 8.4 5.1 61 3.4 WSW 15 22 8 12 1011.7 1011.9 0.0
25/03:30pm 12.4 8.6 6.0 65 3.0 W 15 24 8 13 1011.7 1011.9 0.0
25/03:00pm 11.8 7.9 5.4 65 3.0 WSW 15 20 8 11 1011.8 1012.0 0.0
25/02:30pm 11.4 7.1 5.3 66 2.8 WSW 17 24 9 13 1011.9 1012.1 0.0
25/02:00pm 11.7 7.8 7.0 73 2.3 SSW 17 22 9 12 1012.1 1012.3 0.0
25/01:30pm 10.7 6.3 5.0 68 2.6 WSW 17 24 9 13 1012.3 1012.5 0.0
25/01:00pm 12.0 7.8 5.9 66 2.9 WSW 17 22 9 12 1012.2 1012.4 0.0
25/12:30pm 10.7 6.8 5.5 70 2.4 SW 15 26 8 14 1012.6 1012.7 0.0
25/12:00pm 11.6 7.6 6.5 71 2.4 WNW 17 24 9 13 1012.7 1012.8 0.0
25/11:30am 11.0 6.8 5.7 70 2.5 W 17 22 9 12 1012.8 1012.9 0.0
25/11:00am 9.5 4.8 5.9 78 1.7 WSW 20 35 11 19 1012.9 1013.0 0.0
25/10:30am 10.9 6.4 6.1 72 2.3 WSW 19 26 10 14 1012.6 1012.7 0.0
25/10:00am 10.7 6.2 5.9 72 2.3 WSW 19 30 10 16 1012.6 1012.7 0.0
25/09:30am 9.9 5.2 5.3 73 2.1 WSW 19 28 10 15 1012.5 1012.6 0.0
25/09:00am 9.3 5.1 5.5 77 1.7 W 17 26 9 14 1012.2 1012.4 5.6
25/08:30am 8.6 5.2 6.1 84 1.2 W 13 20 7 11 1012.0 1012.2 5.6
25/08:00am 7.5 4.3 5.3 86 1.0 WNW 11 17 6 9 1011.6 1011.8 5.6
25/07:30am 6.0 3.6 5.1 94 0.4 W 7 9 4 5 1011.1 1011.3 5.6
25/07:00am 4.4 1.9 3.5 94 0.4 W 6 7 3 4 1010.9 1011.1 5.6
25/06:30am 4.3 1.5 3.1 92 0.5 W 7 11 4 6 1010.6 1010.8 5.6
25/06:00am 5.3 2.7 4.1 92 0.5 W 7 13 4 7 1010.2 1010.3 5.6
25/05:30am 4.5 1.3 3.3 92 0.5 W 9 15 5 8 1009.8 1009.9 5.6
25/05:00am 3.9 1.1 2.9 93 0.4 WNW 7 11 4 6 1009.5 1009.6 5.6
25/04:30am 4.5 1.4 3.5 93 0.4 WNW 9 13 5 7 1009.2 1009.3 5.6
25/04:00am 5.5 1.8 4.2 91 0.6 WNW 13 19 7 10 1008.9 1009.0 5.6
25/03:30am 5.9 2.7 4.9 93 0.4 WNW 11 17 6 9 1008.6 1008.7 5.6
25/03:00am 6.3 3.6 5.4 94 0.4 W 9 13 5 7 1008.6 1008.7 5.6
25/02:30am 7.0 3.7 6.3 95 0.3 W 13 17 7 9 1008.5 1008.6 5.6
25/02:00am 6.9 4.7 6.2 95 0.3 W 7 13 4 7 1008.3 1008.4 5.6
25/01:30am 7.5 5.5 6.9 96 0.3 WNW 7 13 4 7 1008.3 1008.4 5.6
25/01:00am 7.0 4.4 6.3 95 0.3 WNW 9 11 5 6 1008.3 1008.4 5.6
25/12:30am 8.1 5.8 7.3 95 0.4 W 9 13 5 7 1008.1 1008.2 5.6
25/12:00am 8.7 6.5 7.8 94 0.4 W 9 17 5 9 1007.9 1008.0 5.4
 
Date/Time
EST
Temp
°C
App
Temp
°C
Dew
Point
°C
Rel
Hum
%
Delta-T
°C
Wind Press
QNH
hPa
Press
MSL
hPa
Rain since
9am
mm
Dir  Spd
km/h
Gust
km/h
Spd
kts
Gust
kts
24/11:30pm 9.2 6.7 8.1 93 0.5 W 11 17 6 9 1007.9 1008.0 5.4
24/11:00pm 8.8 6.9 7.7 93 0.5 W 7 11 4 6 1007.6 1007.8 5.4
24/10:30pm 9.2 7.1 8.3 94 0.4 W 9 13 5 7 1007.4 1007.6 5.4
24/10:00pm 9.8 7.4 8.7 93 0.5 W 11 15 6 8 1007.4 1007.6 5.4
24/09:30pm 10.0 7.3 8.9 93 0.5 W 13 20 7 11 1007.4 1007.6 5.4
24/09:00pm 10.4 7.4 9.2 92 0.6 W 15 28 8 15 1007.1 1007.3 5.4
24/08:30pm 10.9 7.3 9.8 93 0.6 W 19 30 10 16 1006.3 1006.4 5.2
24/08:18pm 11.4 6.7 10.5 94 0.5 NNW 26 50 14 27 1006.1 1006.2 4.4
24/08:17pm 11.4 6.6 10.3 93 0.6 NNW 26 50 14 27 1005.9 1006.0 4.4
24/08:16pm 11.4 6.9 10.1 92 0.7 NNW 24 50 13 27 1005.7 1005.8 4.4
24/08:00pm 11.4 8.4 10.5 94 0.5 N 17 24 9 13 1005.7 1005.8 2.6
24/07:30pm 11.3 9.0 10.4 94 0.5 N 13 20 7 11 1005.7 1005.8 2.0
24/07:00pm 11.5 8.0 10.1 91 0.7 NNE 19 26 10 14 1005.3 1005.4 0.2
24/06:30pm 11.9 8.0 9.6 86 1.2 N 20 26 11 14 1005.0 1005.1 0.0
24/06:00pm 12.1 7.9 9.8 86 1.2 N 22 30 12 16 1004.7 1004.8 0.0
24/05:30pm 13.1 8.5 9.5 79 1.9 N 24 32 13 17 1004.5 1004.6 0.0
24/05:00pm 13.9 10.0 9.3 74 2.4 N 20 26 11 14 1004.4 1004.5 0.0
24/04:30pm 14.3 9.9 8.9 70 2.8 N 22 32 12 17 1004.2 1004.3 0.0
24/04:00pm 14.5 10.2 9.3 71 2.7 N 22 30 12 16 1004.3 1004.4 0.0
24/03:30pm 14.6 10.0 9.6 72 2.6 N 24 33 13 18 1004.2 1004.3 0.0
24/03:00pm 15.0 10.2 10.2 73 2.5 N 26 37 14 20 1004.5 1004.6 0.0
24/02:30pm 14.8 9.0 9.6 71 2.7 N 30 41 16 22 1004.9 1005.0 0.0
24/02:00pm 14.3 9.0 8.5 68 3.0 N 26 35 14 19 1004.9 1005.0 0.0
24/01:30pm 14.4 9.8 9.6 73 2.5 N 24 33 13 18 1005.3 1005.4 0.0
24/01:00pm 14.3 9.2 9.1 71 2.7 N 26 35 14 19 1005.6 1005.7 0.0
24/12:30pm 14.5 9.0 9.3 71 2.7 N 28 39 15 21 1005.7 1005.8 0.0
24/12:00pm 14.8 8.8 8.7 67 3.1 N 30 41 16 22 1005.7 1005.8 0.0
24/11:30am 14.9 8.5 8.6 66 3.2 N 32 43 17 23 1005.8 1005.9 0.0
24/11:00am 15.2 9.5 9.8 70 2.8 N 30 43 16 23 1006.2 1006.3 0.0
24/10:30am 15.0 9.4 8.9 67 3.1 N 28 43 15 23 1006.6 1006.8 0.0
24/10:00am 14.3 7.8 8.3 67 3.1 N 32 50 17 27 1007.0 1007.2 0.0
24/09:52am 14.3 8.0 8.9 70 2.8 N 32 50 17 27 1007.1 1007.3 0.0
24/09:30am 13.6 7.5 8.4 71 2.6 N 30 41 16 22 1007.4 1007.6 0.0
24/09:00am 12.8 7.5 8.5 75 2.2 N 26 37 14 20 1007.2 1007.4 0.0
24/08:30am 11.6 7.1 8.5 81 1.5 NNE 22 32 12 17 1007.3 1007.5 0.0
24/08:00am 9.4 5.3 7.7 89 0.8 NNE 19 24 10 13 1007.4 1007.6 0.0
24/07:30am 8.6 4.7 7.1 90 0.7 NNE 17 24 9 13 1007.9 1008.0 0.0
24/07:00am 8.0 3.6 6.6 91 0.7 N 19 24 10 13 1008.1 1008.2 0.0
24/06:30am 6.4 2.1 5.4 93 0.4 NNE 17 20 9 11 1008.2 1008.3 0.0
24/06:00am 5.3 1.6 4.6 95 0.3 N 13 17 7 9 1008.0 1008.1 0.0
24/05:30am 4.5 1.4 3.8 95 0.3 N 9 11 5 6 1007.9 1008.0 0.0
24/05:00am 4.4 0.9 3.7 95 0.3 N 11 13 6 7 1007.9 1008.0 0.0
24/04:30am 4.2 1.1 3.5 95 0.3 N 9 9 5 5 1008.4 1008.5 0.0
24/04:00am 5.2 1.5 4.3 94 0.4 N 13 13 7 7 1008.6 1008.7 0.0
24/03:30am 4.8 1.4 3.9 94 0.4 N 11 13 6 7 1008.6 1008.7 0.0
24/03:00am 6.7 3.6 5.5 92 0.5 N 11 15 6 8 1008.9 1009.0 0.0
24/02:30am 6.2 3.8 5.3 94 0.4 NNE 7 9 4 5 1009.2 1009.3 0.0
24/02:00am 5.7 3.2 5.0 95 0.3 NNE 7 9 4 5 1009.3 1009.4 0.0
24/01:30am 6.0 2.0 5.1 94 0.4 NNE 15 15 8 8 1009.6 1009.7 0.0
24/01:00am 6.5 2.6 5.5 93 0.4 NNE 15 17 8 9 1009.6 1009.7 0.0
24/12:30am 6.6 3.1 5.6 93 0.5 NNE 13 17 7 9 1009.8 1009.9 0.0
24/12:00am 7.0 3.6 5.9 93 0.5 NNE 13 15 7 8 1010.1 1010.2 0.0
 
Date/Time
EST
Temp
°C
App
Temp
°C
Dew
Point
°C
Rel
Hum
%
Delta-T
°C
Wind Press
QNH
hPa
Press
MSL
hPa
Rain since
9am
mm
Dir  Spd
km/h
Gust
km/h
Spd
kts
Gust
kts
23/11:30pm 6.5 3.4 5.6 94 0.4 NNE 11 13 6 7 1010.3 1010.5 0.0
23/11:00pm 5.9 2.7 5.2 95 0.3 NNE 11 11 6 6 1010.6 1010.8 0.0
23/10:30pm 5.9 3.1 5.0 94 0.4 NNE 9 11 5 6 1010.9 1011.1 0.0
23/10:00pm 7.6 5.6 6.1 90 0.7 NNE 6 7 3 4 1011.2 1011.4 0.0
23/09:30pm 8.1 5.6 6.6 90 0.7 NNE 9 11 5 6 1011.1 1011.3 0.0
23/09:00pm 7.8 5.3 6.4 91 0.6 NNE 9 13 5 7 1011.0 1011.2 0.0
23/08:30pm 7.3 5.2 5.9 91 0.6 NNE 6 7 3 4 1011.0 1011.2 0.0
23/08:00pm 9.0 6.6 7.1 88 0.9 NNE 9 11 5 6 1011.0 1011.2 0.0
23/07:30pm 9.4 7.6 7.3 87 1.0 NNE 6 7 3 4 1011.0 1011.2 0.0
23/07:00pm 10.4 8.6 7.8 84 1.3 NNE 7 9 4 5 1010.9 1011.1 0.0
23/06:30pm 11.1 9.0 8.3 83 1.4 NNE 9 13 5 7 1010.7 1010.9 0.0
23/06:00pm 12.6 10.7 9.1 79 1.8 NNE 9 13 5 7 1010.8 1011.0 0.0
23/05:30pm 12.8 11.6 10.2 84 1.4 NNE 7 9 4 5 1010.4 1010.6 0.0
23/05:00pm 13.9 12.1 9.5 75 2.3 NNE 9 13 5 7 1010.8 1011.0 0.0
23/04:30pm 14.2 11.8 8.8 70 2.8 NNE 11 15 6 8 1010.7 1010.9 0.0
23/04:00pm 14.6 12.3 9.0 69 2.9 NNE 11 15 6 8 1011.0 1011.2 0.0
23/03:30pm 14.4 13.0 9.0 70 2.8 N 6 11 3 6 1011.1 1011.3 0.0
23/03:00pm 15.2 14.1 9.8 70 2.8 N 6 7 3 4 1011.6 1011.8 0.0
23/02:30pm 14.4 11.9 8.4 67 3.0 NNE 11 17 6 9 1012.0 1012.2 0.0
23/02:00pm 14.6 12.6 8.5 67 3.1 NNE 9 13 5 7 1012.2 1012.4 0.0
23/01:30pm 14.1 11.6 8.1 67 3.0 NNE 11 19 6 10 1012.8 1012.9 0.0
23/01:00pm 13.2 10.6 7.6 69 2.8 NE 11 19 6 10 1013.2 1013.3 0.0
23/12:30pm 13.1 10.6 6.7 65 3.1 NE 9 19 5 10 1013.8 1013.9 0.0
23/12:00pm 12.7 10.6 6.7 67 2.9 NE 7 13 4 7 1014.4 1014.6 0.0
23/11:30am 11.7 9.4 5.8 67 2.8 NE 7 11 4 6 1015.0 1015.2 0.0
23/11:00am 11.9 9.7 6.4 69 2.6 E 7 15 4 8 1015.5 1015.7 0.0
23/10:30am 10.6 7.9 5.6 71 2.3 E 9 15 5 8 1016.0 1016.2 0.0
23/10:00am 10.2 7.4 5.0 70 2.4 E 9 17 5 9 1016.3 1016.5 0.0
23/09:30am 10.1 7.4 5.7 74 2.0 SE 9 17 5 9 1016.8 1017.0 0.0
23/09:00am 9.2 6.3 4.6 73 2.1 SE 9 13 5 7 1017.0 1017.2 0.0

Other Formats:

Comma delimited format used in spreadsheet applications
http://www.bom.gov.au/fwo/IDV60801/IDV60801.95840.axf

JavaScript Object Notation format (JSON) in row-major order
http://www.bom.gov.au/fwo/IDV60801/IDV60801.95840.json